Time;durP1;ratioP1;P1;durP2;ratioP2;P2;SDS_P1;SDS_P2;PMS_P1;PMS_P2;Temp;Humidity;BMP_temperature;BMP_pressure;BME280_temperature;BME280_humidity;BME280_pressure;Samples;Min_cycle;Max_cycle;Signal;HPM_P1;HPM_P2
2022/09/11 00:01:03;;;;;;;49.55;33.90;;;;;;;-148.88;100.00;75509.13;5011813;28;20037;-76
2022/09/11 00:03:30;;;;;;;49.70;34.22;;;;;;;-148.88;100.00;75517.25;5011823;28;20044;-76
2022/09/11 00:06:00;;;;;;;49.60;35.28;;;;;;;-148.88;100.00;75509.13;5020061;23;20041;-86
2022/09/11 00:08:26;;;;;;;46.70;33.58;;;;;;;-148.88;100.00;75517.25;5036069;23;20500;-82
2022/09/11 00:10:51;;;;;;;48.88;34.20;;;;;;;-148.88;100.00;75529.44;5021338;28;20049;-83
2022/09/11 00:13:20;;;;;;;49.80;33.58;;;;;;;-148.88;100.00;75537.56;5019137;28;20024;-83
2022/09/11 00:15:48;;;;;;;49.70;34.13;;;;;;;-148.88;100.00;75529.44;5019908;28;20041;-83
2022/09/11 00:18:16;;;;;;;57.55;37.33;;;;;;;-148.88;100.00;75541.63;5020667;28;20018;-83
2022/09/11 00:20:48;;;;;;;59.83;37.83;;;;;;;-148.88;100.00;75539.59;5020983;28;20021;-83
2022/09/11 00:23:16;;;;;;;61.60;38.95;;;;;;;-148.88;100.00;75551.78;5020617;28;20407;-84
2022/09/11 00:25:42;;;;;;;60.95;38.80;;;;;;;-148.88;100.00;75561.94;5019027;28;20018;-83
2022/09/11 00:28:18;;;;;;;65.90;40.33;;;;;;;-148.88;100.00;75570.03;5018353;28;20025;-82
2022/09/11 00:30:45;;;;;;;74.57;43.03;;;;;;;-148.88;100.00;75557.88;5018377;28;20100;-82
2022/09/11 00:33:12;;;;;;;75.05;44.75;;;;;;;-148.88;100.00;75561.94;5019526;28;20029;-83
2022/09/11 00:35:39;;;;;;;72.82;41.97;;;;;;;-148.88;100.00;75566.00;5017848;28;20377;-83
2022/09/11 00:38:07;;;;;;;77.22;44.67;;;;;;;-148.88;100.00;75563.97;5016180;28;20164;-80
2022/09/11 00:40:53;;;;;;;79.32;45.25;;;;;;;-148.88;100.00;75566.00;5016340;28;20045;-81
2022/09/11 00:43:18;;;;;;;87.25;47.25;;;;;;;-148.88;100.00;75578.19;5016003;28;20042;-83
2022/09/11 00:45:48;;;;;;;90.85;49.15;;;;;;;-148.88;100.00;75570.03;5016521;28;20042;-82
2022/09/11 00:48:19;;;;;;;88.93;47.03;;;;;;;-148.88;100.00;75580.22;5016656;28;20128;-83
2022/09/11 00:50:44;;;;;;;100.00;50.67;;;;;;;-148.88;100.00;75584.25;5017027;28;20399;-81
2022/09/11 00:53:13;;;;;;;96.68;48.63;;;;;;;-148.88;100.00;75582.22;5015901;28;20087;-83
2022/09/11 00:55:42;;;;;;;106.13;52.20;;;;;;;-148.88;100.00;75590.34;5017196;28;20092;-83
2022/09/11 00:58:12;;;;;;;108.65;52.38;;;;;;;-148.88;100.00;75584.25;5015892;28;20041;-81
2022/09/11 01:00:40;;;;;;;108.97;51.20;;;;;;;-148.88;100.00;75594.44;5015992;28;20125;-82
2022/09/11 01:03:05;;;;;;;111.82;53.58;;;;;;;-148.88;100.00;75582.22;5016865;28;20484;-83
2022/09/11 01:05:34;;;;;;;119.57;53.65;;;;;;;-148.88;100.00;75594.44;5015907;28;20029;-83
2022/09/11 01:08:02;;;;;;;114.80;53.85;;;;;;;-148.88;100.00;75586.31;5017349;28;20075;-82
2022/09/11 01:10:49;;;;;;;106.15;52.65;;;;;;;-148.88;100.00;75590.34;5017870;28;20026;-81
2022/09/11 01:13:36;;;;;;;106.68;52.03;;;;;;;-148.88;100.00;75598.47;5015888;28;20098;-81
2022/09/11 01:16:25;;;;;;;103.57;51.33;;;;;;;-148.88;100.00;75596.44;5013157;28;20022;-81
2022/09/11 01:19:19;;;;;;;105.22;51.25;;;;;;;-148.88;100.00;75586.31;5016571;28;20022;-82
2022/09/11 01:22:25;;;;;;;108.63;51.78;;;;;;;-148.88;100.00;75590.34;5016384;28;20030;-83
2022/09/11 01:25:07;;;;;;;107.53;52.53;;;;;;;-148.88;100.00;75590.34;5017953;28;20052;-83
2022/09/11 01:27:36;;;;;;;109.88;51.97;;;;;;;-148.88;100.00;75596.44;5016245;28;20038;-82
2022/09/11 01:30:09;;;;;;;113.50;52.28;;;;;;;-148.88;100.00;75606.59;5017993;28;20026;-83
2022/09/11 01:33:07;;;;;;;101.90;52.38;;;;;;;-148.88;100.00;75600.50;5019094;28;20022;-83
2022/09/11 01:35:45;;;;;;;130.43;56.03;;;;;;;-148.88;100.00;75612.69;5021592;28;20038;-82
2022/09/11 01:38:26;;;;;;;126.85;57.88;;;;;;;-148.88;100.00;75612.69;5019297;28;20056;-83
2022/09/11 01:41:06;;;;;;;155.85;61.80;;;;;;;-148.88;100.00;75614.72;5021077;28;20152;-81
2022/09/11 01:43:37;;;;;;;168.52;61.35;;;;;;;-148.88;100.00;75610.66;5019347;28;20025;-83
2022/09/11 01:46:06;;;;;;;175.68;64.50;;;;;;;-148.88;100.00;75608.63;5019360;28;20053;-83
2022/09/11 01:48:40;;;;;;;230.60;69.65;;;;;;;-148.88;100.00;75624.88;5020662;28;20014;-83
2022/09/11 01:51:08;;;;;;;220.80;70.13;;;;;;;-148.88;100.00;75618.78;5019426;28;20034;-83
2022/09/11 01:53:37;;;;;;;235.52;72.70;;;;;;;-148.88;100.00;75622.84;5018883;28;20022;-81
2022/09/11 01:56:15;;;;;;;177.82;69.03;;;;;;;-148.88;100.00;75612.69;5017892;28;20062;-83
2022/09/11 01:58:43;;;;;;;229.57;74.57;;;;;;;-148.88;100.00;75618.78;5016623;28;20082;-83
2022/09/11 02:01:19;;;;;;;233.52;75.80;;;;;;;-148.88;100.00;75618.78;5018453;28;20034;-82
2022/09/11 02:03:52;;;;;;;276.08;82.68;;;;;;;-148.88;100.00;75618.78;5016840;28;20022;-83
2022/09/11 02:06:23;;;;;;;263.05;79.78;;;;;;;-148.88;100.00;75618.78;5017269;28;20036;-83
2022/09/11 02:08:57;;;;;;;300.85;83.43;;;;;;;-148.88;100.00;75614.72;5018807;28;20053;-83
2022/09/11 02:11:23;;;;;;;327.63;85.65;;;;;;;-148.88;100.00;75618.78;5019461;28;20037;-84
2022/09/11 02:14:09;;;;;;;303.92;86.80;;;;;;;-148.88;100.00;75618.78;5017589;28;20116;-83
2022/09/11 02:16:56;;;;;;;281.95;83.93;;;;;;;-148.88;100.00;75616.75;5019060;28;20018;-84
2022/09/11 02:19:27;;;;;;;302.05;85.35;;;;;;;-148.88;100.00;75614.72;5019130;28;20033;-83
2022/09/11 02:21:53;;;;;;;271.05;83.30;;;;;;;-148.88;100.00;75614.72;5017450;28;20029;-82
2022/09/11 02:24:21;;;;;;;282.20;84.45;;;;;;;-148.88;100.00;75610.66;5018104;28;20188;-82
2022/09/11 02:26:54;;;;;;;324.33;89.82;;;;;;;-148.88;100.00;75622.84;5019348;28;20048;-82
2022/09/11 02:29:20;;;;;;;302.53;87.87;;;;;;;-148.88;100.00;75622.84;5019089;28;20472;-83
2022/09/11 02:31:47;;;;;;;277.98;86.50;;;;;;;-148.88;100.00;75622.84;5018031;28;20018;-83
2022/09/11 02:34:13;;;;;;;281.55;87.90;;;;;;;-148.88;100.00;75620.81;5015225;28;20033;-82
2022/09/11 02:37:03;;;;;;;284.75;87.38;;;;;;;-148.88;100.00;75633.00;5015777;28;20472;-82
2022/09/11 02:40:12;;;;;;;270.77;86.20;;;;;;;-148.88;100.00;75630.97;5017103;28;20045;-81
2022/09/11 02:43:21;;;;;;;306.67;89.35;;;;;;;-148.88;100.00;75630.97;5015834;28;20030;-83
2022/09/11 02:46:05;;;;;;;299.70;87.22;;;;;;;-148.88;100.00;75628.94;5017808;28;20041;-84
2022/09/11 02:48:49;;;;;;;339.40;95.90;;;;;;;-148.88;100.00;75637.06;5016675;28;20080;-83
2022/09/11 02:51:19;;;;;;;304.40;88.30;;;;;;;-148.88;100.00;75635.03;5016882;28;20402;-83
2022/09/11 02:54:14;;;;;;;315.95;90.03;;;;;;;-148.88;100.00;75639.09;5018214;28;20029;-82
2022/09/11 02:56:45;;;;;;;280.73;86.55;;;;;;;-148.88;100.00;75637.06;5017840;28;20041;-83
2022/09/11 02:59:26;;;;;;;299.48;88.28;;;;;;;-148.88;100.00;75647.22;5016852;28;20098;-83
2022/09/11 03:01:54;;;;;;;283.67;87.47;;;;;;;-148.88;100.00;75647.22;5021050;28;20033;-83
2022/09/11 03:04:21;;;;;;;311.80;90.53;;;;;;;-148.88;100.00;75643.16;5022929;28;20017;-83
2022/09/11 03:09:26;;;;;;;244.75;84.72;;;;;;;-148.88;100.00;75641.13;5160959;22;20053;-85
2022/09/11 03:11:52;;;;;;;272.77;85.88;;;;;;;-148.88;100.00;75649.25;5014710;28;20073;-87
2022/09/11 03:14:18;;;;;;;282.95;85.50;;;;;;;-148.88;100.00;75643.16;5015726;28;20106;-86
2022/09/11 03:16:44;;;;;;;296.33;87.00;;;;;;;-148.88;100.00;75649.25;5014279;28;20113;-87
2022/09/11 03:19:10;;;;;;;315.52;85.97;;;;;;;-148.88;100.00;75649.25;5014038;28;20025;-87
2022/09/11 03:21:37;;;;;;;337.25;87.38;;;;;;;-148.88;100.00;75651.28;5014094;28;20029;-85
2022/09/11 03:24:04;;;;;;;247.07;81.95;;;;;;;-148.88;100.00;75645.19;5014228;28;20490;-87
2022/09/11 03:26:33;;;;;;;285.60;83.40;;;;;;;-148.88;100.00;75651.28;5014056;28;20053;-87
2022/09/11 03:28:58;;;;;;;334.30;85.88;;;;;;;-148.88;100.00;75651.28;5013820;28;20049;-86
2022/09/11 03:31:24;;;;;;;266.52;81.18;;;;;;;-148.88;100.00;75657.38;5014217;28;20057;-87
2022/09/11 03:33:50;;;;;;;302.83;87.05;;;;;;;-148.88;100.00;75657.38;5014094;28;20373;-86
2022/09/11 03:36:15;;;;;;;410.80;89.00;;;;;;;-148.88;100.00;75659.41;5012930;28;20037;-85
2022/09/11 03:38:41;;;;;;;281.90;80.00;;;;;;;-148.88;100.00;75659.41;5014740;28;20032;-87
2022/09/11 03:41:08;;;;;;;374.85;85.13;;;;;;;-148.88;100.00;75655.34;5015040;28;20036;-87
2022/09/11 03:43:36;;;;;;;363.10;80.85;;;;;;;-148.88;100.00;75669.56;5013763;28;20092;-88
2022/09/11 03:46:02;;;;;;;367.73;81.72;;;;;;;-148.88;100.00;75669.56;5013694;28;20030;-87
2022/09/11 03:48:28;;;;;;;450.80;86.50;;;;;;;-148.88;100.00;75675.66;5014634;28;20503;-87
2022/09/11 03:50:53;;;;;;;424.95;85.25;;;;;;;-148.88;100.00;75687.84;5013502;28;20022;-88
2022/09/11 03:53:18;;;;;;;496.27;90.22;;;;;;;-148.88;100.00;75693.94;5013452;28;20025;-87
2022/09/11 03:55:45;;;;;;;187.27;67.53;;;;;;;-148.88;100.00;75687.84;5012717;28;20757;-87
2022/09/11 03:58:11;;;;;;;316.00;74.82;;;;;;;-148.88;100.00;75700.03;5014241;28;20022;-87
2022/09/11 04:00:42;;;;;;;204.80;70.63;;;;;;;-148.88;100.00;75700.03;5013062;28;20075;-87
2022/09/11 04:03:09;;;;;;;261.88;71.75;;;;;;;-148.88;100.00;75702.06;5013058;28;20025;-86
2022/09/11 04:05:35;;;;;;;235.77;70.35;;;;;;;-148.88;100.00;75700.03;5013302;28;20561;-86
2022/09/11 04:08:03;;;;;;;196.73;68.82;;;;;;;-148.88;100.00;75700.03;5013293;28;20034;-88
2022/09/11 04:10:30;;;;;;;268.65;72.82;;;;;;;-148.88;100.00;75700.03;5012768;28;20036;-87
2022/09/11 04:12:55;;;;;;;254.95;67.93;;;;;;;-148.88;100.00;75704.09;5014110;28;20395;-86
2022/09/11 04:15:21;;;;;;;216.63;63.72;;;;;;;-148.88;100.00;75712.22;5014414;28;20022;-85
2022/09/11 04:17:48;;;;;;;235.18;68.47;;;;;;;-148.88;100.00;75720.34;5013887;28;20057;-88
2022/09/11 04:20:16;;;;;;;204.02;66.90;;;;;;;-148.88;100.00;75714.25;5013741;28;20041;-87
2022/09/11 04:22:44;;;;;;;234.02;67.70;;;;;;;-148.88;100.00;75720.34;5013023;28;20104;-87
2022/09/11 04:25:11;;;;;;;198.10;64.28;;;;;;;-148.88;100.00;75710.19;5012629;28;20046;-85
2022/09/11 04:27:36;;;;;;;221.52;66.00;;;;;;;-148.88;100.00;75716.28;5013145;28;20026;-86
2022/09/11 04:30:03;;;;;;;217.95;67.25;;;;;;;-148.88;100.00;75716.28;5013037;28;20022;-87
2022/09/11 04:32:33;;;;;;;228.48;68.05;;;;;;;-148.88;100.00;75716.28;5013131;28;20108;-87
2022/09/11 04:34:59;;;;;;;180.40;65.05;;;;;;;-148.88;100.00;75716.28;5012668;28;20504;-87
2022/09/11 04:37:24;;;;;;;264.38;67.63;;;;;;;-148.88;100.00;75720.34;5013228;28;20021;-88
2022/09/11 04:39:49;;;;;;;230.77;68.88;;;;;;;-148.88;100.00;75720.34;5012295;28;20025;-88
2022/09/11 04:42:15;;;;;;;285.65;72.10;;;;;;;-148.88;100.00;75720.34;5013472;28;20038;-88
2022/09/11 04:44:41;;;;;;;202.05;64.65;;;;;;;-148.88;100.00;75716.28;5012564;28;20033;-87
2022/09/11 04:47:06;;;;;;;271.50;65.85;;;;;;;-148.88;100.00;75730.50;5012891;28;20025;-86
2022/09/11 04:49:32;;;;;;;398.27;77.60;;;;;;;-148.88;100.00;75732.53;5012814;28;20022;-84
2022/09/11 04:52:01;;;;;;;338.35;69.13;;;;;;;-148.88;100.00;75728.47;5012762;28;20401;-83
2022/09/11 04:54:27;;;;;;;428.80;77.50;;;;;;;-148.88;100.00;75736.59;5012577;28;20048;-84
2022/09/11 04:56:53;;;;;;;365.77;73.05;;;;;;;-148.88;100.00;75740.66;5012701;28;20038;-84
2022/09/11 04:59:21;;;;;;;294.05;69.47;;;;;;;-148.88;100.00;75738.63;5012848;28;20472;-85
2022/09/11 05:01:46;;;;;;;388.15;73.97;;;;;;;-148.88;100.00;75742.69;5012438;28;20594;-83
2022/09/11 05:04:13;;;;;;;211.00;63.55;;;;;;;-148.88;100.00;75742.69;5012201;28;20046;-84
2022/09/11 05:06:39;;;;;;;248.23;68.22;;;;;;;-148.88;100.00;75736.59;5012962;28;20044;-83
2022/09/11 05:09:08;;;;;;;268.73;71.10;;;;;;;-148.88;100.00;75728.47;5016577;28;20022;-84
2022/09/11 05:11:34;;;;;;;275.17;67.05;;;;;;;-148.88;100.00;75732.53;5016274;28;20483;-83
2022/09/11 05:13:59;;;;;;;409.70;75.13;;;;;;;-148.88;100.00;75738.63;5016298;28;20034;-85
2022/09/11 05:16:27;;;;;;;289.23;74.15;;;;;;;-148.88;100.00;75744.72;5015976;28;20494;-84
2022/09/11 05:18:52;;;;;;;291.02;74.53;;;;;;;-148.88;100.00;75740.66;5015983;28;20021;-84
2022/09/11 05:21:21;;;;;;;242.20;66.57;;;;;;;-148.88;100.00;75742.69;5015893;28;20112;-85
2022/09/11 05:23:48;;;;;;;252.02;68.47;;;;;;;-148.88;100.00;75742.69;5015987;28;20030;-85
2022/09/11 05:26:16;;;;;;;246.90;66.78;;;;;;;-148.88;100.00;75752.84;5015906;28;20476;-85
2022/09/11 05:28:42;;;;;;;232.95;65.57;;;;;;;-148.88;100.00;75740.66;5016146;28;20387;-84
2022/09/11 05:31:16;;;;;;;242.73;66.47;;;;;;;-148.88;100.00;75744.72;5016323;28;20029;-84
2022/09/11 05:33:42;;;;;;;223.15;62.80;;;;;;;-148.88;100.00;75752.84;5015565;28;20075;-83
2022/09/11 05:36:09;;;;;;;231.63;63.10;;;;;;;-148.88;100.00;75760.97;5017068;28;20022;-86
2022/09/11 05:38:38;;;;;;;204.68;59.80;;;;;;;-148.88;100.00;75752.84;5017442;28;20048;-86
2022/09/11 05:41:14;;;;;;;197.88;59.15;;;;;;;-148.88;100.00;75744.72;5015725;28;20125;-86
2022/09/11 05:43:40;;;;;;;210.20;62.08;;;;;;;-148.88;100.00;75746.75;5015786;28;20034;-84
2022/09/11 05:46:07;;;;;;;197.60;59.55;;;;;;;-148.88;100.00;75744.72;5017073;28;20036;-84
2022/09/11 05:48:35;;;;;;;221.32;60.42;;;;;;;-148.88;100.00;75740.66;5016836;28;20022;-86
2022/09/11 05:51:05;;;;;;;207.60;59.15;;;;;;;-148.88;100.00;75750.81;5015583;28;20022;-85
2022/09/11 05:53:33;;;;;;;184.60;57.90;;;;;;;-148.88;100.00;75750.81;5016875;28;20117;-85
2022/09/11 05:56:16;;;;;;;187.90;60.15;;;;;;;-148.88;100.00;75756.91;5015658;28;20026;-85
2022/09/11 05:58:42;;;;;;;199.13;59.28;;;;;;;-148.88;100.00;75773.16;5016555;28;20026;-85
2022/09/11 06:01:10;;;;;;;203.23;60.47;;;;;;;-148.88;100.00;75769.09;5015176;28;20029;-85
2022/09/11 06:03:38;;;;;;;200.60;60.83;;;;;;;-148.88;100.00;75773.16;5015292;28;20030;-85
2022/09/11 06:06:06;;;;;;;193.77;57.08;;;;;;;-148.88;100.00;75777.22;5016890;28;20021;-85
2022/09/11 06:08:36;;;;;;;175.20;57.10;;;;;;;-148.88;100.00;75771.13;5015068;28;20021;-85
2022/09/11 06:11:06;;;;;;;147.20;55.25;;;;;;;-148.88;100.00;75765.03;5015087;28;20484;-85
2022/09/11 06:13:37;;;;;;;172.98;58.88;;;;;;;-148.88;100.00;75765.03;5014870;28;20116;-85
2022/09/11 06:16:04;;;;;;;172.13;55.95;;;;;;;-148.88;100.00;75760.97;5016763;28;20037;-86
2022/09/11 06:18:31;;;;;;;141.73;50.15;;;;;;;-148.88;100.00;75765.03;5014490;28;20052;-86
2022/09/11 06:20:58;;;;;;;162.93;52.53;;;;;;;-148.88;100.00;75773.16;5014683;28;20045;-86
2022/09/11 06:23:23;;;;;;;220.18;56.72;;;;;;;-148.88;100.00;75785.34;5014761;28;20018;-85
2022/09/11 06:25:48;;;;;;;134.52;47.97;;;;;;;-148.88;100.00;75779.25;5014900;28;20080;-85
2022/09/11 06:28:14;;;;;;;126.38;46.63;;;;;;;-148.88;100.00;75785.34;5014844;28;20022;-86
2022/09/11 06:30:40;;;;;;;146.70;49.13;;;;;;;-148.88;100.00;75785.34;5014779;28;20427;-86
2022/09/11 06:33:05;;;;;;;193.07;52.00;;;;;;;-148.88;100.00;75793.47;5014581;28;20129;-85
2022/09/11 06:35:30;;;;;;;174.95;50.97;;;;;;;-148.88;100.00;75785.34;5014562;28;20061;-87
2022/09/11 06:37:55;;;;;;;166.52;52.92;;;;;;;-148.88;100.00;75781.28;5014463;28;20067;-88
2022/09/11 06:40:21;;;;;;;172.45;52.47;;;;;;;-148.88;100.00;75787.38;5014396;28;20026;-87
2022/09/11 06:42:46;;;;;;;191.63;54.05;;;;;;;-148.88;100.00;75793.47;5014787;28;20120;-86
2022/09/11 06:45:11;;;;;;;145.45;50.58;;;;;;;-148.88;100.00;75781.28;5015200;28;20032;-87
2022/09/11 06:47:36;;;;;;;149.73;49.63;;;;;;;-148.88;100.00;75793.47;5014222;28;20120;-86
2022/09/11 06:50:05;;;;;;;144.02;47.17;;;;;;;-148.88;100.00;75781.28;5014216;28;20030;-87
2022/09/11 06:52:34;;;;;;;142.13;48.75;;;;;;;-148.88;100.00;75763.00;5014216;28;20032;-87
2022/09/11 06:55:00;;;;;;;135.80;47.25;;;;;;;-148.88;100.00;75781.28;5014458;28;20026;-87
2022/09/11 06:57:27;;;;;;;120.25;44.33;;;;;;;-148.88;100.00;75783.31;5013888;28;20030;-87
2022/09/11 06:59:52;;;;;;;124.10;46.13;;;;;;;-148.88;100.00;75781.28;5014369;28;20053;-87
2022/09/11 07:02:17;;;;;;;119.13;43.92;;;;;;;-148.88;100.00;75793.47;5014850;28;20038;-87
2022/09/11 07:04:42;;;;;;;132.85;45.72;;;;;;;-148.88;100.00;75785.34;5014135;28;20391;-87
2022/09/11 07:07:08;;;;;;;127.40;45.35;;;;;;;-148.88;100.00;75793.47;5013976;28;20026;-87
2022/09/11 07:09:33;;;;;;;130.63;46.35;;;;;;;-148.88;100.00;75785.34;5014037;28;20026;-87
2022/09/11 07:11:58;;;;;;;119.20;44.97;;;;;;;-148.88;100.00;75789.41;5014060;28;20030;-87
2022/09/11 07:14:23;;;;;;;126.43;45.33;;;;;;;-148.88;100.00;75801.59;5013923;28;20021;-88
2022/09/11 07:16:54;;;;;;;110.20;42.78;;;;;;;-148.88;100.00;75805.66;5013915;28;20034;-87
2022/09/11 07:19:23;;;;;;;112.28;43.30;;;;;;;-148.88;100.00;75789.41;5014438;28;20103;-87
2022/09/11 07:21:48;;;;;;;118.93;44.97;;;;;;;-148.88;100.00;75789.41;5014361;28;20033;-87
2022/09/11 07:24:14;;;;;;;118.53;44.22;;;;;;;-148.88;100.00;75785.34;5014143;28;20033;-86
2022/09/11 07:26:39;;;;;;;105.07;41.92;;;;;;;-148.88;100.00;75789.41;5014117;28;20065;-84
2022/09/11 07:29:04;;;;;;;107.63;43.22;;;;;;;-148.88;100.00;75785.34;5013001;28;20517;-85
2022/09/11 07:31:31;;;;;;;106.32;41.20;;;;;;;-148.88;100.00;75781.28;5014863;28;20064;-84
2022/09/11 07:33:58;;;;;;;103.40;41.90;;;;;;;-148.88;100.00;75795.50;5014445;28;20030;-85
2022/09/11 07:36:29;;;;;;;104.13;42.13;;;;;;;-148.88;100.00;75777.22;5013670;28;20033;-84
2022/09/11 07:38:55;;;;;;;103.15;41.58;;;;;;;-148.88;100.00;75777.22;5013540;28;20022;-85
2022/09/11 07:41:22;;;;;;;91.60;40.33;;;;;;;-148.88;100.00;75781.28;5013568;28;20037;-84
2022/09/11 07:43:52;;;;;;;96.53;40.97;;;;;;;-148.88;100.00;75769.09;5015011;28;20072;-85
2022/09/11 07:46:17;;;;;;;86.05;38.58;;;;;;;-148.88;100.00;75769.09;5013724;28;20061;-85
2022/09/11 07:48:43;;;;;;;78.47;36.22;;;;;;;-148.88;100.00;75777.22;5014219;28;20018;-86
2022/09/11 07:51:11;;;;;;;80.15;37.80;;;;;;;-148.88;100.00;75765.03;5014197;28;20025;-88
2022/09/11 07:53:41;;;;;;;79.60;37.53;;;;;;;-148.88;100.00;75744.72;5013807;28;20030;-88
2022/09/11 07:56:22;;;;;;;63.22;33.03;;;;;;;-148.88;100.00;75760.97;5013530;28;20029;-87
2022/09/11 07:58:49;;;;;;;58.17;31.30;;;;;;;-148.88;100.00;75779.25;5013161;28;20022;-88
2022/09/11 08:01:16;;;;;;;55.50;30.75;;;;;;;-148.88;100.00;75769.09;5013319;28;20044;-88
2022/09/11 08:03:43;;;;;;;57.72;31.77;;;;;;;-148.88;100.00;75767.06;5014357;28;20490;-88
2022/09/11 08:06:14;;;;;;;52.80;30.05;;;;;;;-148.88;100.00;75756.91;5013129;28;20480;-87
2022/09/11 08:08:41;;;;;;;52.15;29.27;;;;;;;-148.88;100.00;75744.72;5014146;28;20029;-86
2022/09/11 08:11:12;;;;;;;47.70;28.08;;;;;;;-148.88;100.00;75740.66;5015103;28;20079;-87
2022/09/11 08:13:39;;;;;;;46.00;27.17;;;;;;;-148.88;100.00;75742.69;5013738;28;20053;-85
2022/09/11 08:16:05;;;;;;;52.33;28.35;;;;;;;-148.88;100.00;75726.44;5013438;28;20022;-88
2022/09/11 08:18:31;;;;;;;46.08;27.58;;;;;;;-148.88;100.00;75724.41;5013406;28;20049;-88
2022/09/11 08:21:07;;;;;;;44.30;27.35;;;;;;;-148.88;100.00;75728.47;5013193;28;20038;-87
2022/09/11 08:23:33;;;;;;;44.70;26.95;;;;;;;-148.88;100.00;75728.47;5014334;28;20468;-88
2022/09/11 08:26:12;;;;;;;40.92;25.73;;;;;;;-148.88;100.00;75704.09;5013485;28;20025;-87
2022/09/11 08:28:38;;;;;;;42.97;26.38;;;;;;;-148.88;100.00;75708.16;5013380;28;20026;-87
2022/09/11 08:31:05;;;;;;;39.80;25.50;;;;;;;-148.88;100.00;75708.16;5013045;28;20033;-86
2022/09/11 08:33:31;;;;;;;45.97;24.77;;;;;;;-148.88;100.00;75695.97;5013364;28;20043;-85
2022/09/11 08:35:57;;;;;;;39.90;24.83;;;;;;;-148.88;100.00;75687.84;5019050;28;20161;-85
2022/09/11 08:38:23;;;;;;;40.60;24.45;;;;;;;-148.88;100.00;75675.66;5020151;28;20050;-85
2022/09/11 08:40:50;;;;;;;36.65;24.10;;;;;;;-148.88;100.00;75667.53;5017731;28;20034;-87
2022/09/11 08:43:21;;;;;;;36.20;23.25;;;;;;;-148.88;100.00;75667.53;5014124;28;20026;-86
2022/09/11 08:45:50;;;;;;;36.00;23.50;;;;;;;-148.88;100.00;75669.56;5012804;28;20064;-87
2022/09/11 08:48:17;;;;;;;38.58;24.30;;;;;;;-148.88;100.00;75659.41;5012814;28;20112;-87
2022/09/11 08:50:42;;;;;;;34.42;23.13;;;;;;;-148.88;100.00;75665.50;5012714;28;20026;-86
2022/09/11 08:53:31;;;;;;;35.05;21.90;;;;;;;-148.88;100.00;75659.41;5013103;28;20467;-88
2022/09/11 08:56:13;;;;;;;30.40;20.80;;;;;;;-148.88;100.00;75626.91;5011419;28;20037;-89
2022/09/11 08:59:11;;;;;;;29.95;19.08;;;;;;;-148.88;100.00;75614.72;5013009;28;20121;-88
2022/09/11 09:12:24;;;;;;;;;;;;;;;-148.88;100.00;75563.97;4953505;28;20533;-86
2022/09/11 09:18:37;;;;;;;26.77;18.45;;;;;;;-148.88;100.00;75541.63;4972410;28;20046;-87
2022/09/11 09:21:36;;;;;;;25.02;17.38;;;;;;;-148.88;99.35;75549.75;4956426;28;20069;-87
2022/09/11 09:24:23;;;;;;;24.42;17.73;;;;;;;-148.88;98.48;75547.72;4972597;28;20023;-87
2022/09/11 09:26:57;;;;;;;24.90;16.73;;;;;;;-148.88;99.10;75537.56;4972109;28;20027;-87
2022/09/11 09:29:29;;;;;;;25.65;17.38;;;;;;;-148.88;97.26;75547.72;5010652;28;20084;-87
2022/09/11 09:32:22;;;;;;;24.35;17.33;;;;;;;-148.88;97.29;75566.00;5012101;28;20029;-85
2022/09/11 09:35:14;;;;;;;23.70;17.15;;;;;;;-148.88;98.01;75570.03;5012189;28;20136;-86
2022/09/11 09:41:28;;;;;;;;;;;;;;;;;;;;;
2022/09/11 09:47:20;;;;;;;25.85;18.42;;;;;;;-148.88;99.41;75626.91;5012979;28;20049;-88
2022/09/11 09:49:48;;;;;;;30.10;17.70;;;;;;;-148.88;99.47;75626.91;5012109;28;20484;-85
2022/09/11 09:52:17;;;;;;;25.35;18.17;;;;;;;-148.88;99.79;75630.97;5013296;28;20029;-87
2022/09/11 09:54:50;;;;;;;26.50;17.85;;;;;;;-148.88;100.00;75622.84;5015523;28;20025;-86
2022/09/11 09:57:17;;;;;;;28.08;18.80;;;;;;;-148.88;100.00;75618.78;5015197;28;20116;-85
2022/09/11 09:59:49;;;;;;;28.42;18.88;;;;;;;-148.88;99.64;75612.69;5016462;28;20472;-86
2022/09/11 10:02:53;;;;;;;26.92;18.33;;;;;;;-148.88;100.00;75606.59;5015344;28;20499;-88
2022/09/11 10:05:25;;;;;;;;;;;;;;;-148.88;99.91;75608.63;5016093;28;20369;-90
2022/09/11 10:07:57;;;;;;;27.25;18.98;;;;;;;-148.88;100.00;75588.34;5015830;28;20336;-86
2022/09/11 10:10:29;;;;;;;26.33;17.85;;;;;;;-148.88;99.26;75570.03;5015378;28;20022;-86
2022/09/11 10:13:05;;;;;;;23.15;16.80;;;;;;;-148.88;98.31;75570.03;5016532;28;20026;-86
2022/09/11 10:15:37;;;;;;;23.83;15.88;;;;;;;-148.88;98.98;75553.81;5016122;28;20113;-85
2022/09/11 10:18:27;;;;;;;25.25;16.88;;;;;;;-148.88;97.65;75531.47;5015228;28;20124;-85
2022/09/11 10:21:11;;;;;;;23.70;17.42;;;;;;;-148.88;95.68;75541.63;5014870;28;20029;-85
2022/09/11 10:23:53;;;;;;;24.67;17.58;;;;;;;-148.88;95.98;75523.34;5014821;28;20487;-86
2022/09/11 10:26:42;;;;;;;24.92;17.05;;;;;;;-148.88;96.08;75519.28;5016075;28;20037;-86
2022/09/11 10:29:23;;;;;;;22.40;15.70;;;;;;;-148.88;95.62;75535.53;5015665;28;20017;-85
2022/09/11 10:31:50;;;;;;;23.85;15.57;;;;;;;-148.88;96.15;75549.75;5014945;28;20127;-86
2022/09/11 10:34:18;;;;;;;21.23;15.82;;;;;;;-148.88;96.01;75549.75;5014452;28;20037;-86
2022/09/11 10:37:17;;;;;;;22.35;16.38;;;;;;;-148.88;97.34;75557.88;5014503;28;20484;-85
2022/09/11 10:39:45;;;;;;;23.70;15.55;;;;;;;-148.88;97.63;75557.88;5014061;28;20435;-84
2022/09/11 10:42:29;;;;;;;20.48;14.65;;;;;;;-148.88;97.17;75537.56;5015207;28;20120;-87
2022/09/11 10:45:05;;;;;;;22.65;16.10;;;;;;;-148.88;96.43;75523.34;5014159;28;20025;-87
2022/09/11 10:47:31;;;;;;;23.33;14.95;;;;;;;-148.88;96.08;75509.13;5014128;28;20038;-86
2022/09/11 10:50:15;;;;;;;22.98;15.32;;;;;;;-148.88;96.56;75476.63;5013984;28;20399;-86
2022/09/11 10:53:02;;;;;;;23.65;15.98;;;;;;;-148.88;94.09;75456.31;5014414;28;20160;-86
2022/09/11 10:55:43;;;;;;;20.13;14.80;;;;;;;-148.88;90.40;75448.19;5013897;28;20036;-87
2022/09/11 10:58:19;;;;;;;19.50;13.90;;;;;;;-148.88;90.95;75425.84;5014024;28;20109;-87
2022/09/11 11:00:44;;;;;;;21.50;14.82;;;;;;;-148.88;90.30;75395.38;5013790;28;20030;-86
2022/09/11 11:03:17;;;;;;;22.13;14.68;;;;;;;-148.88;88.37;75399.44;5013682;28;20022;-88
2022/09/11 11:06:00;;;;;;;22.13;13.80;;;;;;;-148.88;89.66;75356.78;5013546;28;20037;-86
2022/09/11 11:08:47;;;;;;;20.50;14.33;;;;;;;-148.88;88.68;75375.06;5013698;28;20022;-86
2022/09/11 11:11:30;;;;;;;21.33;14.63;;;;;;;-148.88;88.14;75387.25;5013435;28;20488;-87
2022/09/11 11:14:14;;;;;;;19.63;13.45;;;;;;;-148.88;88.73;75377.09;5013504;28;20116;-86
2022/09/11 11:16:48;;;;;;;;;;;;;;;-148.88;88.99;75371.00;5013774;28;20037;-86
2022/09/11 11:19:33;;;;;;;23.67;15.95;;;;;;;-148.88;87.82;75330.38;5013279;28;19964;-87
2022/09/11 11:22:28;;;;;;;20.90;14.93;;;;;;;-148.88;87.73;75320.22;5014106;28;20026;-87
2022/09/11 11:25:15;;;;;;;20.92;15.15;;;;;;;-148.88;87.22;75348.66;5013394;28;20447;-87
2022/09/11 11:28:11;;;;;;;18.98;13.63;;;;;;;-148.88;86.87;75318.19;5013194;28;20021;-86
2022/09/11 11:31:01;;;;;;;18.38;13.32;;;;;;;-148.88;86.71;75318.19;5013872;28;20030;-87
2022/09/11 11:33:36;;;;;;;19.17;13.68;;;;;;;-148.88;86.06;75318.19;5013592;28;20064;-86
2022/09/11 11:36:07;;;;;;;20.83;14.77;;;;;;;-148.88;86.05;75356.78;5013158;28;20021;-86